logo
Rechercher aéroport 
image banner adimage banner adimage banner ad
image banner ad

0CN2 - Sutter Butte Dusters

Situé à Live Oak, United States

ICAO - 0CN2, IATA -

Données fournies par Airmate  

Information générale

Coordonnées: N39°13'43" W121°41'18"
Élévation : 67 feet MSL.
 
Voir autres Aéroports à California

Données opérationnelles

Special qualification required
Heure actuelle UTC:
Heure actuelle locale:
Météo à : KMYV - Yuba County ( 18 km )
METAR: KMYV 261453Z AUTO 17003KT 10SM CLR 17/14 A2995 RMK AO2 SLP144 T01720139 51012
Voir NOTAMs / SUP AIP / TFR affectant cet aéroport [VIEW]
Fréquences de communication: [VIEW]

Pistes:

Identifiant RWYQFULongueur (ft)Largeur (ft)SurfaceLDA (ft)
16249331ASPH
34249331ASPH

Coordonnées de l'aéroport

Adresse: Live Oak United States

Vue satellite de 0CN2